Ventura, Iowa
Current Conditions -  °F | °C
As of 8:01 AM on Sunday 21 Dec 2014 (Local Time) from KMCW Reporting Station
Haze Haze  
Wind Chill: 26°   Ceiling: 200
Heat Index: 35°   Visibility: 2.5mi
Dew Point: 34°   Wind: 14mph
Humidity: 96%   Direction: 170°S
Pressure: 29.92"   Gusts: NA
Location:  43.13°N, 93.48°W
Report Text: KMCW 211401Z AUTO 17012KT 2 1/2SM BR OVC002 02/01 A2992 RMK AO2 T00170011 $
Loading
Personal Weather Stations






























Interactive Weather Map New forecast layout! Learn more

10-Day Weather Forecast

Advertisements
Track Severe Weather on mobile